This is the latest recevied weather packets stored in our database for station/object KB1ZFK. If no packets are shown the sender has not sent any weather packets the latest 1 day(s).
| Time | Temp. | Humidity | Pressure | Rain* | Wind** | Luminosity | Snow |
|---|---|---|---|---|---|---|---|
| 1778029784 | 19.44° C | 69% | 1008.4 hPa | 0 mm | 0 m/s | 0 W/m² | - |
| 1778029484 | 19.44° C | 68% | 1008.6 hPa | 0 mm | 0 m/s | 0 W/m² | - |
| 1778029179 | 19.44° C | 69% | 1008.4 hPa | 0 mm | 0.45 m/s, 319° | 0 W/m² | - |
| 1778028878 | 20° C | 68% | 1008.5 hPa | 0 mm | 0.45 m/s, 330° | 0 W/m² | - |
| 1778028572 | 20° C | 67% | 1008.3 hPa | 0 mm | 0 m/s | 0 W/m² | - |
| 1778028271 | 20° C | 67% | 1008.6 hPa | 0 mm | 0.45 m/s, 311° | 0 W/m² | - |
| 1778027966 | 20.56° C | 64% | 1008.6 hPa | 0 mm | 0.89 m/s, 336° | 0 W/m² | - |
| 1778027663 | 21.11° C | 61% | 1008.4 hPa | 0 mm | 0 m/s | 0 W/m² | - |
| 1778027360 | 21.11° C | 60% | 1008.3 hPa | 0 mm | 0.45 m/s, 289° | 0 W/m² | - |
| 1778027056 | 21.11° C | 59% | 1008.1 hPa | 0 mm | 0.45 m/s, 324° | 0 W/m² | - |
| 1778026751 | 21.67° C | 57% | 1008.1 hPa | 0 mm | 1.34 m/s, 250° | 0 W/m² | - |
| 1778026449 | 22.22° C | 53% | 1007.8 hPa | 0 mm | 0 m/s | 0 W/m² | - |
| 1778026146 | 23.33° C | 48% | 1007.5 hPa | 0 mm | 0 m/s | 0 W/m² | - |
| 1778025843 | 23.33° C | 47% | 1007.1 hPa | 0 mm | 0.45 m/s, 326° | 0 W/m² | - |
| 1778025540 | 23.33° C | 46% | 1006.8 hPa | 0 mm | 0.45 m/s, 328° | 0 W/m² | - |
| 1778025238 | 23.33° C | 46% | 1006.7 hPa | 0 mm | 0.45 m/s, 330° | 0 W/m² | - |
| 1778024934 | 23.33° C | 45% | 1006.4 hPa | 0 mm | 1.34 m/s, 162° | 0 W/m² | - |
| 1778024632 | 23.33° C | 45% | 1006.5 hPa | 0 mm | 0.45 m/s, 324° | 0 W/m² | - |
| 1778024329 | 23.89° C | 45% | 1006.1 hPa | 0 mm | 0.45 m/s, 333° | 0 W/m² | - |
| 1778024027 | 23.33° C | 45% | 1006 hPa | 0 mm | 1.34 m/s, 221° | 2 W/m² | - |
| 1778023724 | 23.89° C | 45% | 1006.1 hPa | 0 mm | 0.89 m/s, 157° | 3 W/m² | - |
| 1778023422 | 23.89° C | 45% | 1005.9 hPa | 0 mm | 0.89 m/s, 295° | 5 W/m² | - |
| 1778023118 | 23.89° C | 45% | 1005.9 hPa | 0 mm | 0.89 m/s, 28° | 10 W/m² | - |
| 1778022815 | 23.89° C | 45% | 1006 hPa | 0 mm | 1.79 m/s, 338° | 16 W/m² | - |
| 1778022514 | 23.89° C | 45% | 1005.7 hPa | 0 mm | 1.79 m/s, 57° | 19 W/m² | - |
* Rain latest hour (hover to see other rain measurements)
** Current wind speed in m/s (hover to see current wind gust speed)